Boston, Massachusetts
Traffic Map
Current Weather Conditions
Boston, Massachusetts
Scattered Clouds
Scattered Clouds
17°
Feels Like: 17°
Wind Chill: 17° Ceiling: Unl
Heat Index: 17° Visibility: 10mi
Dew Point: 14° Wind: 8mph
Humidity: 81% Direction: 270° (W)
Pressure: 30.01in Gusts: 0mph
Raw Report DataKBOS 050854Z 27007KT 10SM FEW110 SCT250 17/14 A3001 RMK AO2 SLP160 T01720139 53003
Traffic Incident Summary
Active as of:
Severity:
Category:
InformationThere was an issue retrieving the traffic information for this location. Please try a different location or try again shortly.
Advertisements
Track Severe Weather on mobile